Time;durP1;ratioP1;P1;durP2;ratioP2;P2;SDS_P1;SDS_P2;PMS_P1;PMS_P2;Temp;Humidity;BMP_temperature;BMP_pressure;BME280_temperature;BME280_humidity;BME280_pressure;Samples;Min_cycle;Max_cycle;Signal;HPM_P1;HPM_P2
2022/03/22 00:01:44;;;;;;;;;27.00;24.50;;;;;;;;5072422;27;45278;-73
2022/03/22 00:04:10;;;;;;;;;27.25;19.25;;;;;;;;5072240;28;46023;-75
2022/03/22 00:06:35;;;;;;;;;31.75;26.50;;;;;;;;5077624;27;45582;-74
2022/03/22 00:09:00;;;;;;;;;22.50;22.50;;;;;;;;5075054;28;45607;-72
2022/03/22 00:11:26;;;;;;;;;28.75;24.50;;;;;;;;5075224;28;45364;-73
2022/03/22 00:13:51;;;;;;;;;28.00;27.25;;;;;;;;5074901;28;46319;-72
2022/03/22 00:16:16;;;;;;;;;31.75;29.00;;;;;;;;5077234;28;45461;-72
2022/03/22 00:18:41;;;;;;;;;27.50;24.00;;;;;;;;5075461;28;45319;-72
2022/03/22 00:21:07;;;;;;;;;25.00;24.00;;;;;;;;5075254;28;45461;-71
2022/03/22 00:23:32;;;;;;;;;30.00;26.50;;;;;;;;5074920;28;45331;-71
2022/03/22 00:25:57;;;;;;;;;36.25;31.75;;;;;;;;5075231;28;45365;-71
2022/03/22 00:28:23;;;;;;;;;31.75;28.75;;;;;;;;5077157;28;45516;-71
2022/03/22 00:30:50;;;;;;;;;29.75;27.50;;;;;;;;5076021;28;45458;-72
2022/03/22 00:33:15;;;;;;;;;34.00;28.00;;;;;;;;5076330;28;46018;-71
2022/03/22 00:35:40;;;;;;;;;36.25;30.25;;;;;;;;5076568;28;45482;-71
2022/03/22 00:38:08;;;;;;;;;31.00;27.25;;;;;;;;5076609;28;45395;-72
2022/03/22 00:40:33;;;;;;;;;29.00;26.75;;;;;;;;5077274;28;45575;-72
2022/03/22 00:42:58;;;;;;;;;27.75;25.25;;;;;;;;5076100;28;45366;-71
2022/03/22 00:45:28;;;;;;;;;34.75;28.50;;;;;;;;5075939;28;45603;-72
2022/03/22 00:47:54;;;;;;;;;29.50;26.75;;;;;;;;5076448;28;45324;-71
2022/03/22 00:50:20;;;;;;;;;28.00;24.25;;;;;;;;5076824;28;45287;-71
2022/03/22 00:52:46;;;;;;;;;29.75;28.00;;;;;;;;5076481;28;46124;-72
2022/03/22 00:55:14;;;;;;;;;32.50;28.50;;;;;;;;5076601;28;45292;-71
2022/03/22 00:57:40;;;;;;;;;33.75;29.50;;;;;;;;5075930;28;45438;-72
2022/03/22 01:00:08;;;;;;;;;28.00;25.25;;;;;;;;5076050;28;45661;-71
2022/03/22 01:02:37;;;;;;;;;32.50;28.50;;;;;;;;5075819;28;48092;-71
2022/03/22 01:05:07;;;;;;;;;34.50;30.00;;;;;;;;5060168;27;45367;-70
2022/03/22 01:07:33;;;;;;;;;29.25;26.50;;;;;;;;5072790;28;45418;-72
2022/03/22 01:09:59;;;;;;;;;26.00;22.00;;;;;;;;5076205;28;45371;-72
2022/03/22 01:12:24;;;;;;;;;28.75;26.50;;;;;;;;5075579;28;46098;-72
2022/03/22 01:14:49;;;;;;;;;21.50;20.75;;;;;;;;5076058;28;45509;-72
2022/03/22 01:17:15;;;;;;;;;31.25;26.50;;;;;;;;5075608;28;45560;-72
2022/03/22 01:19:40;;;;;;;;;29.25;25.75;;;;;;;;5075981;28;45521;-72
2022/03/22 01:22:08;;;;;;;;;26.50;25.00;;;;;;;;5076216;28;46518;-71
2022/03/22 01:24:33;;;;;;;;;21.00;20.00;;;;;;;;5075539;28;45544;-72
2022/03/22 01:26:58;;;;;;;;;22.25;18.50;;;;;;;;5075250;28;45447;-71
2022/03/22 01:29:23;;;;;;;;;18.00;17.25;;;;;;;;5075952;28;45513;-72
2022/03/22 01:31:49;;;;;;;;;25.50;22.75;;;;;;;;5075624;28;46249;-72
2022/03/22 01:34:14;;;;;;;;;28.00;26.25;;;;;;;;5076147;28;45590;-72
2022/03/22 01:36:40;;;;;;;;;19.50;18.25;;;;;;;;5075668;28;45402;-72
2022/03/22 01:39:05;;;;;;;;;19.50;18.00;;;;;;;;5074469;28;45409;-72
2022/03/22 01:41:30;;;;;;;;;21.00;18.75;;;;;;;;5075127;28;46103;-72
2022/03/22 01:43:55;;;;;;;;;26.00;24.25;;;;;;;;5075378;28;45370;-72
2022/03/22 01:46:23;;;;;;;;;24.75;22.50;;;;;;;;5076197;28;45535;-72
2022/03/22 01:48:48;;;;;;;;;21.00;18.50;;;;;;;;5075348;28;45546;-72
2022/03/22 01:51:13;;;;;;;;;24.75;23.00;;;;;;;;5075093;28;46410;-72
2022/03/22 01:53:40;;;;;;;;;20.75;19.25;;;;;;;;5074558;28;45417;-72
2022/03/22 01:56:05;;;;;;;;;22.00;20.25;;;;;;;;5075227;28;45517;-72
2022/03/22 01:58:31;;;;;;;;;25.75;23.50;;;;;;;;5076260;28;45263;-72
2022/03/22 02:05:51;;;;;;;;;28.00;26.25;;;;;;;;5074755;28;45912;-72
2022/03/22 02:06:31;;;;;;;;;23.00;21.50;;;;;;;;5074876;28;45541;-72
2022/03/22 02:08:57;;;;;;;;;24.75;24.25;;;;;;;;5074933;28;45627;-72
2022/03/22 02:11:22;;;;;;;;;29.25;24.25;;;;;;;;5074619;28;45596;-72
2022/03/22 02:13:47;;;;;;;;;24.75;23.75;;;;;;;;5075345;28;45324;-71
2022/03/22 02:16:13;;;;;;;;;23.25;23.00;;;;;;;;5073561;28;45552;-72
2022/03/22 02:18:40;;;;;;;;;24.00;21.75;;;;;;;;5074948;28;45340;-71
2022/03/22 02:21:05;;;;;;;;;26.75;23.25;;;;;;;;5074674;28;47312;-72
2022/03/22 02:23:33;;;;;;;;;28.50;24.25;;;;;;;;5074630;28;45365;-71
2022/03/22 02:25:59;;;;;;;;;28.00;24.75;;;;;;;;5075032;28;45455;-73
2022/03/22 02:28:24;;;;;;;;;25.25;22.25;;;;;;;;5075399;28;45413;-72
2022/03/22 02:30:50;;;;;;;;;28.00;27.00;;;;;;;;5056170;28;45430;-71
2022/03/22 02:33:15;;;;;;;;;28.00;28.00;;;;;;;;5074889;28;45560;-71
2022/03/22 02:35:41;;;;;;;;;26.75;24.25;;;;;;;;5075041;28;45492;-72
2022/03/22 02:38:07;;;;;;;;;31.25;25.50;;;;;;;;5074622;28;45335;-72
2022/03/22 02:40:32;;;;;;;;;26.00;25.75;;;;;;;;5075426;28;47073;-72
2022/03/22 02:42:59;;;;;;;;;30.25;27.75;;;;;;;;5074479;28;45438;-72
2022/03/22 02:45:24;;;;;;;;;29.50;26.50;;;;;;;;5074730;28;45461;-72
2022/03/22 02:47:50;;;;;;;;;29.00;24.50;;;;;;;;5074743;28;45391;-73
2022/03/22 02:50:15;;;;;;;;;25.25;22.00;;;;;;;;5074642;28;46450;-71
2022/03/22 02:52:41;;;;;;;;;19.50;19.50;;;;;;;;5056243;28;45258;-71
2022/03/22 02:55:07;;;;;;;;;22.75;21.75;;;;;;;;5075082;28;45283;-72
2022/03/22 02:57:34;;;;;;;;;27.00;23.75;;;;;;;;5074589;28;45431;-72
2022/03/22 02:59:59;;;;;;;;;27.25;25.00;;;;;;;;5074269;28;46960;-71
2022/03/22 03:02:24;;;;;;;;;23.50;21.50;;;;;;;;5074292;28;45528;-71
2022/03/22 03:04:50;;;;;;;;;25.50;24.00;;;;;;;;5074874;28;45590;-72
2022/03/22 03:07:15;;;;;;;;;31.00;26.00;;;;;;;;5074862;28;45471;-71
2022/03/22 03:09:40;;;;;;;;;28.25;25.50;;;;;;;;5053453;28;47395;-71
2022/03/22 03:12:06;;;;;;;;;25.25;23.50;;;;;;;;5074467;28;45431;-72
2022/03/22 03:14:40;;;;;;;;;22.25;21.25;;;;;;;;5074665;28;45429;-71
2022/03/22 03:17:05;;;;;;;;;23.25;23.25;;;;;;;;5058886;28;45530;-72
2022/03/22 03:19:31;;;;;;;;;23.00;20.25;;;;;;;;5074805;28;45427;-71
2022/03/22 03:21:56;;;;;;;;;18.75;17.25;;;;;;;;5073605;28;45606;-71
2022/03/22 03:24:21;;;;;;;;;24.00;21.75;;;;;;;;5075322;28;45327;-72
2022/03/22 03:26:46;;;;;;;;;24.50;22.25;;;;;;;;5074745;28;45362;-72
2022/03/22 03:29:11;;;;;;;;;24.75;21.75;;;;;;;;5074457;28;46285;-71
2022/03/22 03:31:37;;;;;;;;;23.75;21.75;;;;;;;;5075518;28;45359;-71
2022/03/22 03:34:02;;;;;;;;;23.50;20.00;;;;;;;;5074180;28;45568;-71
2022/03/22 03:36:28;;;;;;;;;21.00;20.25;;;;;;;;5073398;28;45448;-72
2022/03/22 03:38:53;;;;;;;;;22.50;20.00;;;;;;;;5074363;28;45415;-73
2022/03/22 03:47:03;;;;;;;;;17.75;17.00;;;;;;;;5061846;27;45462;-72
2022/03/22 03:47:07;;;;;;;;;19.00;19.00;;;;;;;;5075403;28;45645;-72
2022/03/22 03:49:34;;;;;;;;;19.25;18.50;;;;;;;;5073799;28;47455;-71
2022/03/22 03:51:59;;;;;;;;;25.50;22.50;;;;;;;;5076441;28;45256;-72
2022/03/22 03:54:25;;;;;;;;;20.00;17.25;;;;;;;;5076906;28;45347;-71
2022/03/22 03:56:50;;;;;;;;;26.25;23.00;;;;;;;;5077143;28;45457;-71
2022/03/22 03:59:15;;;;;;;;;22.50;21.25;;;;;;;;5077068;28;45398;-71
2022/03/22 04:01:40;;;;;;;;;20.75;19.50;;;;;;;;5077357;28;45293;-71
2022/03/22 04:04:05;;;;;;;;;23.00;20.25;;;;;;;;5077407;28;45531;-71
2022/03/22 04:06:31;;;;;;;;;21.25;21.25;;;;;;;;5076973;28;45455;-72
2022/03/22 04:08:56;;;;;;;;;25.00;23.25;;;;;;;;5076922;28;46274;-72
2022/03/22 04:11:22;;;;;;;;;29.00;26.75;;;;;;;;5077013;28;45279;-72
2022/03/22 04:13:47;;;;;;;;;25.50;22.25;;;;;;;;5076860;28;45600;-72
2022/03/22 04:16:13;;;;;;;;;21.50;18.75;;;;;;;;5077587;28;45314;-74
2022/03/22 04:18:38;;;;;;;;;29.00;27.00;;;;;;;;5076883;28;46084;-73
2022/03/22 04:21:04;;;;;;;;;23.00;21.00;;;;;;;;5076261;28;46138;-73
2022/03/22 04:23:30;;;;;;;;;20.25;16.25;;;;;;;;5076898;28;45542;-71
2022/03/22 04:25:55;;;;;;;;;21.00;20.75;;;;;;;;5076905;28;45473;-71
2022/03/22 04:34:08;;;;;;;;;23.75;21.75;;;;;;;;4994119;28;45525;-71
2022/03/22 04:36:34;;;;;;;;;22.50;21.00;;;;;;;;4992825;28;45547;-72
2022/03/22 04:39:00;;;;;;;;;21.75;20.25;;;;;;;;4992484;28;45515;-71
2022/03/22 04:41:25;;;;;;;;;21.75;21.75;;;;;;;;4991034;28;45536;-72
2022/03/22 04:43:50;;;;;;;;;28.00;24.50;;;;;;;;4992901;28;45638;-71
2022/03/22 04:46:18;;;;;;;;;22.50;22.25;;;;;;;;4994443;28;45423;-71
2022/03/22 04:48:43;;;;;;;;;28.25;25.00;;;;;;;;4992186;28;46523;-71
2022/03/22 04:56:48;;;;;;;;;23.75;22.00;;;;;;;;4992870;28;45451;-73
2022/03/22 04:59:14;;;;;;;;;26.75;23.75;;;;;;;;4992228;28;46156;-73
2022/03/22 05:01:40;;;;;;;;;24.75;20.25;;;;;;;;5016936;28;45398;-72
2022/03/22 05:04:05;;;;;;;;;28.75;25.25;;;;;;;;5056331;28;45609;-71
2022/03/22 05:06:35;;;;;;;;;24.00;24.00;;;;;;;;5057096;28;45248;-71
2022/03/22 05:09:01;;;;;;;;;22.50;21.50;;;;;;;;5056554;28;46649;-71
2022/03/22 05:11:26;;;;;;;;;24.25;20.25;;;;;;;;5056161;28;45534;-71
2022/03/22 05:13:54;;;;;;;;;20.75;20.75;;;;;;;;5056868;28;45386;-73
2022/03/22 05:16:19;;;;;;;;;32.75;22.75;;;;;;;;5056075;28;45391;-70
2022/03/22 05:18:44;;;;;;;;;28.00;22.75;;;;;;;;5056319;28;46511;-72
2022/03/22 05:21:09;;;;;;;;;27.00;24.25;;;;;;;;5056378;28;45426;-71
2022/03/22 05:23:35;;;;;;;;;28.00;23.00;;;;;;;;5056572;28;45379;-72
2022/03/22 05:26:01;;;;;;;;;24.00;22.00;;;;;;;;5021908;28;45489;-72
2022/03/22 05:28:26;;;;;;;;;30.25;23.50;;;;;;;;5055197;28;45348;-71
2022/03/22 05:30:51;;;;;;;;;28.50;24.75;;;;;;;;5055880;28;45503;-73
2022/03/22 05:33:16;;;;;;;;;28.50;24.00;;;;;;;;5055644;28;45348;-71
2022/03/22 05:35:41;;;;;;;;;27.50;24.50;;;;;;;;5056320;28;45496;-72
2022/03/22 05:38:07;;;;;;;;;20.25;20.00;;;;;;;;5055984;28;45955;-72
2022/03/22 05:40:32;;;;;;;;;31.75;27.25;;;;;;;;5055190;28;45427;-73
2022/03/22 05:42:57;;;;;;;;;26.75;22.50;;;;;;;;5056059;28;45319;-73
2022/03/22 05:45:31;;;;;;;;;27.50;24.75;;;;;;;;5056155;28;46340;-72
2022/03/22 05:48:00;;;;;;;;;28.25;24.75;;;;;;;;5055391;28;46202;-73
2022/03/22 05:50:26;;;;;;;;;28.75;26.25;;;;;;;;5056617;28;45529;-72
2022/03/22 05:52:51;;;;;;;;;29.25;26.25;;;;;;;;5056155;28;45502;-72
2022/03/22 05:55:16;;;;;;;;;24.75;24.75;;;;;;;;5055101;28;45383;-71
2022/03/22 05:57:41;;;;;;;;;22.75;19.75;;;;;;;;5055150;28;45682;-71
2022/03/22 06:00:08;;;;;;;;;28.25;26.25;;;;;;;;5055647;28;45435;-72
2022/03/22 06:02:37;;;;;;;;;27.75;22.00;;;;;;;;5055209;28;45365;-72
2022/03/22 06:05:03;;;;;;;;;29.50;26.50;;;;;;;;5021821;28;45353;-72
2022/03/22 06:07:28;;;;;;;;;28.00;23.25;;;;;;;;5050664;28;46042;-72
2022/03/22 06:09:53;;;;;;;;;29.00;25.75;;;;;;;;5055697;28;45412;-73
2022/03/22 06:12:19;;;;;;;;;25.00;23.75;;;;;;;;5057277;28;45382;-74
2022/03/22 06:14:47;;;;;;;;;32.00;30.25;;;;;;;;5057521;28;45369;-71
2022/03/22 06:17:12;;;;;;;;;29.00;27.25;;;;;;;;5057227;28;45735;-74
2022/03/22 06:19:37;;;;;;;;;28.25;27.25;;;;;;;;5053769;28;45353;-72
2022/03/22 06:22:03;;;;;;;;;26.50;24.75;;;;;;;;5036962;28;45376;-72
2022/03/22 06:24:28;;;;;;;;;28.50;25.00;;;;;;;;5054349;28;45583;-72
2022/03/22 06:26:53;;;;;;;;;33.50;30.50;;;;;;;;5054347;28;45461;-74
2022/03/22 06:29:19;;;;;;;;;30.25;26.25;;;;;;;;5054394;28;45457;-72
2022/03/22 06:31:44;;;;;;;;;35.00;30.50;;;;;;;;5053829;28;45423;-73
2022/03/22 06:34:09;;;;;;;;;30.50;28.00;;;;;;;;5054152;28;45283;-71
2022/03/22 06:36:34;;;;;;;;;34.75;29.75;;;;;;;;5054137;28;45381;-72
2022/03/22 06:38:59;;;;;;;;;34.00;29.00;;;;;;;;5054400;28;45429;-73
2022/03/22 06:41:25;;;;;;;;;29.25;27.25;;;;;;;;5054643;28;45452;-72
2022/03/22 06:43:50;;;;;;;;;27.25;25.75;;;;;;;;5054581;28;45293;-73
2022/03/22 06:46:15;;;;;;;;;29.75;27.50;;;;;;;;5052736;28;45470;-72
2022/03/22 06:48:41;;;;;;;;;25.75;22.75;;;;;;;;5054165;28;45434;-72
2022/03/22 06:51:07;;;;;;;;;32.00;28.50;;;;;;;;5053859;28;45359;-72
2022/03/22 06:53:33;;;;;;;;;27.75;24.25;;;;;;;;5053466;28;45704;-76
2022/03/22 06:55:58;;;;;;;;;34.75;31.00;;;;;;;;5053865;28;46985;-75
2022/03/22 06:58:24;;;;;;;;;33.50;28.25;;;;;;;;5052566;28;45467;-75
2022/03/22 07:00:50;;;;;;;;;30.00;28.25;;;;;;;;5053801;28;45541;-77
2022/03/22 07:03:15;;;;;;;;;33.25;30.75;;;;;;;;5053717;28;45383;-75
2022/03/22 07:05:42;;;;;;;;;31.75;29.50;;;;;;;;5053478;28;46187;-77
2022/03/22 07:08:07;;;;;;;;;34.50;29.00;;;;;;;;5054825;28;45457;-76
2022/03/22 07:10:33;;;;;;;;;35.25;27.75;;;;;;;;5052979;28;45347;-74
2022/03/22 07:12:59;;;;;;;;;25.25;25.25;;;;;;;;5053372;28;45605;-76
2022/03/22 07:15:35;;;;;;;;;28.50;24.00;;;;;;;;5055475;28;46970;-76
2022/03/22 07:18:02;;;;;;;;;38.50;32.00;;;;;;;;5057021;28;45438;-77
2022/03/22 07:20:27;;;;;;;;;30.75;27.50;;;;;;;;5056948;28;45550;-76
2022/03/22 07:22:53;;;;;;;;;28.75;26.50;;;;;;;;5057474;28;45395;-76
2022/03/22 07:25:18;;;;;;;;;34.25;28.25;;;;;;;;5055342;28;45648;-76
2022/03/22 07:27:44;;;;;;;;;30.00;29.25;;;;;;;;5056722;28;45688;-74
2022/03/22 07:30:12;;;;;;;;;35.00;31.50;;;;;;;;5056657;28;45375;-76
2022/03/22 07:32:38;;;;;;;;;35.00;29.50;;;;;;;;5056952;28;45517;-77
2022/03/22 07:35:04;;;;;;;;;27.50;27.50;;;;;;;;5057367;28;47013;-76
2022/03/22 07:37:29;;;;;;;;;36.75;32.00;;;;;;;;5052274;28;45287;-78
2022/03/22 07:39:56;;;;;;;;;40.00;31.75;;;;;;;;5057545;28;45427;-78
2022/03/22 07:42:24;;;;;;;;;30.50;27.75;;;;;;;;5059763;28;45541;-78
2022/03/22 07:44:49;;;;;;;;;38.00;31.50;;;;;;;;5057069;28;47025;-75
2022/03/22 07:47:15;;;;;;;;;31.25;26.00;;;;;;;;5057268;28;45566;-77
2022/03/22 07:55:10;;;;;;;;;38.25;34.25;;;;;;;;5057302;28;45297;-76
2022/03/22 07:57:35;;;;;;;;;39.75;35.75;;;;;;;;5053647;28;45574;-78
2022/03/22 08:00:01;;;;;;;;;33.00;32.00;;;;;;;;5055806;28;45373;-78
2022/03/22 08:02:26;;;;;;;;;32.50;29.75;;;;;;;;5055910;28;45411;-79
2022/03/22 08:04:53;;;;;;;;;38.25;33.00;;;;;;;;5055866;28;45318;-75
2022/03/22 08:07:18;;;;;;;;;36.25;29.00;;;;;;;;5055773;28;45439;-78
2022/03/22 08:09:45;;;;;;;;;35.00;31.25;;;;;;;;5056688;28;45866;-79
2022/03/22 08:12:10;;;;;;;;;42.25;33.75;;;;;;;;5057548;28;45288;-78
2022/03/22 08:14:38;;;;;;;;;38.50;32.50;;;;;;;;5056554;28;46037;-78
2022/03/22 08:17:03;;;;;;;;;35.50;30.75;;;;;;;;5056319;28;45424;-78
2022/03/22 08:19:29;;;;;;;;;35.00;32.50;;;;;;;;5054967;28;45309;-78
2022/03/22 08:21:54;;;;;;;;;44.00;33.00;;;;;;;;5055904;28;45618;-77
2022/03/22 08:24:19;;;;;;;;;40.75;37.00;;;;;;;;5057006;28;45491;-78
2022/03/22 08:26:45;;;;;;;;;32.25;30.75;;;;;;;;5055723;28;45366;-77
2022/03/22 08:29:10;;;;;;;;;37.50;31.25;;;;;;;;5058585;28;45544;-77
2022/03/22 08:31:35;;;;;;;;;43.75;33.00;;;;;;;;5055294;28;45354;-78
2022/03/22 08:34:01;;;;;;;;;39.00;32.50;;;;;;;;5055452;28;46739;-77
2022/03/22 08:36:26;;;;;;;;;39.75;33.00;;;;;;;;5055917;28;45426;-77
2022/03/22 08:38:52;;;;;;;;;41.75;36.50;;;;;;;;5057795;28;45499;-77
2022/03/22 08:41:17;;;;;;;;;39.25;33.75;;;;;;;;5055860;28;45431;-78
2022/03/22 08:43:42;;;;;;;;;39.25;32.50;;;;;;;;5055126;28;45729;-77
2022/03/22 08:46:07;;;;;;;;;41.50;32.75;;;;;;;;5019876;28;45462;-78
2022/03/22 08:48:34;;;;;;;;;42.25;33.50;;;;;;;;5051215;28;45441;-78
2022/03/22 08:51:00;;;;;;;;;32.25;29.00;;;;;;;;5055224;28;45555;-77
2022/03/22 08:53:25;;;;;;;;;38.00;33.00;;;;;;;;5058176;28;47097;-78
2022/03/22 08:55:51;;;;;;;;;33.75;25.50;;;;;;;;5055343;28;45420;-76
2022/03/22 08:58:17;;;;;;;;;31.00;27.50;;;;;;;;5054700;28;45545;-77
2022/03/22 09:00:43;;;;;;;;;31.75;26.25;;;;;;;;5054593;28;45522;-77
2022/03/22 09:03:10;;;;;;;;;34.50;31.00;;;;;;;;5053028;28;45776;-74
2022/03/22 09:08:19;;;;;;;;;30.50;23.50;;;;;;;;5043410;28;45774;-76
2022/03/22 09:10:46;;;;;;;;;31.50;25.50;;;;;;;;5054458;28;45392;-76
2022/03/22 09:13:11;;;;;;;;;24.00;21.25;;;;;;;;5054249;28;47020;-76
2022/03/22 09:15:38;;;;;;;;;21.25;19.50;;;;;;;;5055298;28;45501;-75
2022/03/22 09:18:04;;;;;;;;;26.00;21.75;;;;;;;;5055045;28;45785;-76
2022/03/22 09:20:32;;;;;;;;;19.50;18.00;;;;;;;;5055065;28;45364;-76
2022/03/22 09:22:57;;;;;;;;;17.25;17.25;;;;;;;;5055025;28;45644;-77
2022/03/22 09:25:22;;;;;;;;;19.25;19.00;;;;;;;;5053925;28;45295;-75
2022/03/22 09:27:48;;;;;;;;;15.25;15.25;;;;;;;;5055018;28;45285;-76
2022/03/22 09:30:14;;;;;;;;;20.75;18.00;;;;;;;;5054962;28;45471;-77
2022/03/22 09:32:40;;;;;;;;;18.50;14.75;;;;;;;;5053546;28;47181;-76
2022/03/22 09:35:07;;;;;;;;;19.25;18.50;;;;;;;;5054832;28;45628;-76
2022/03/22 09:37:36;;;;;;;;;22.00;19.00;;;;;;;;5053751;28;45385;-77
2022/03/22 09:40:01;;;;;;;;;22.25;20.50;;;;;;;;5054360;28;45292;-77
2022/03/22 09:42:30;;;;;;;;;16.00;14.75;;;;;;;;5054742;28;47015;-77
2022/03/22 09:44:57;;;;;;;;;18.50;17.00;;;;;;;;5054313;28;45475;-77
2022/03/22 09:47:22;;;;;;;;;13.00;12.75;;;;;;;;5054404;28;45378;-76
2022/03/22 09:49:47;;;;;;;;;23.50;20.00;;;;;;;;5054728;28;45482;-77
2022/03/22 09:52:14;;;;;;;;;14.75;14.75;;;;;;;;5053073;28;45394;-76
2022/03/22 09:54:40;;;;;;;;;24.25;18.50;;;;;;;;5055596;28;45482;-77
2022/03/22 09:57:07;;;;;;;;;18.50;18.25;;;;;;;;5054530;28;45229;-77
2022/03/22 09:59:36;;;;;;;;;18.00;14.50;;;;;;;;5055289;28;45481;-77
2022/03/22 10:02:02;;;;;;;;;17.50;15.00;;;;;;;;5054808;28;47211;-76
2022/03/22 10:04:35;;;;;;;;;13.50;13.50;;;;;;;;5054119;28;45533;-76
2022/03/22 10:07:03;;;;;;;;;13.00;11.50;;;;;;;;5055357;28;45478;-76
2022/03/22 10:09:33;;;;;;;;;23.00;21.25;;;;;;;;5036238;28;45498;-77
2022/03/22 10:11:58;;;;;;;;;20.25;14.25;;;;;;;;5054709;28;47171;-76
2022/03/22 10:14:34;;;;;;;;;18.50;17.25;;;;;;;;5054383;28;45426;-77
2022/03/22 10:17:07;;;;;;;;;16.25;14.25;;;;;;;;5054890;28;45468;-77
2022/03/22 10:19:32;;;;;;;;;15.75;13.75;;;;;;;;5050170;28;45320;-78
2022/03/22 10:22:04;;;;;;;;;16.75;14.50;;;;;;;;5054310;28;46990;-77
2022/03/22 10:24:29;;;;;;;;;17.75;17.75;;;;;;;;5053974;28;45494;-77
2022/03/22 10:26:55;;;;;;;;;16.00;15.00;;;;;;;;5054283;28;45467;-76
2022/03/22 10:29:20;;;;;;;;;18.75;16.00;;;;;;;;5054872;28;45309;-77
2022/03/22 10:31:45;;;;;;;;;17.75;16.50;;;;;;;;5036055;28;46510;-77
2022/03/22 10:34:12;;;;;;;;;18.75;16.50;;;;;;;;5053544;28;45384;-76
2022/03/22 10:36:37;;;;;;;;;16.50;16.00;;;;;;;;5037265;28;45524;-77
2022/03/22 10:39:07;;;;;;;;;15.50;15.50;;;;;;;;5054356;28;45302;-76
2022/03/22 10:41:33;;;;;;;;;15.25;15.00;;;;;;;;5055684;28;46237;-77
2022/03/22 10:44:01;;;;;;;;;18.25;13.50;;;;;;;;5054098;28;45555;-77
2022/03/22 10:46:27;;;;;;;;;15.50;14.75;;;;;;;;5053130;28;45264;-79
2022/03/22 10:48:59;;;;;;;;;14.00;14.00;;;;;;;;5054918;28;45397;-77
2022/03/22 10:51:30;;;;;;;;;20.50;18.25;;;;;;;;5053426;28;46160;-79
2022/03/22 10:53:56;;;;;;;;;15.00;14.50;;;;;;;;5053880;28;45384;-78
2022/03/22 10:56:22;;;;;;;;;15.50;15.50;;;;;;;;5053743;28;45451;-78
2022/03/22 10:58:48;;;;;;;;;17.50;14.75;;;;;;;;5053749;28;45513;-78
2022/03/22 11:01:14;;;;;;;;;15.00;15.00;;;;;;;;5051466;28;46240;-79
2022/03/22 11:03:40;;;;;;;;;20.50;17.00;;;;;;;;5053694;28;45402;-78
2022/03/22 11:06:06;;;;;;;;;18.00;17.00;;;;;;;;5053703;28;45367;-78
2022/03/22 11:08:32;;;;;;;;;21.75;19.75;;;;;;;;5055018;28;45450;-76
2022/03/22 11:10:58;;;;;;;;;15.50;15.00;;;;;;;;5054053;28;46136;-77
2022/03/22 11:13:24;;;;;;;;;15.75;15.75;;;;;;;;5052846;28;45494;-79
2022/03/22 11:15:50;;;;;;;;;21.25;17.75;;;;;;;;5052463;28;45364;-78
2022/03/22 11:18:16;;;;;;;;;9.25;6.00;;;;;;;;5053219;28;45558;-78
2022/03/22 11:20:51;;;;;;;;;17.75;17.00;;;;;;;;5053062;28;47253;-78
2022/03/22 11:23:20;;;;;;;;;23.75;23.50;;;;;;;;5053093;28;45826;-78
2022/03/22 11:25:45;;;;;;;;;18.25;18.25;;;;;;;;5053170;28;45366;-78
2022/03/22 11:28:13;;;;;;;;;15.50;14.50;;;;;;;;5053180;28;45279;-78
2022/03/22 11:30:40;;;;;;;;;16.50;15.25;;;;;;;;5053366;28;46186;-78
2022/03/22 11:35:51;;;;;;;;;18.75;15.75;;;;;;;;5053461;28;45506;-78
2022/03/22 11:38:35;;;;;;;;;15.00;13.00;;;;;;;;5054785;28;45468;-78
2022/03/22 11:43:44;;;;;;;;;12.25;11.00;;;;;;;;5052628;28;45460;-79
2022/03/22 11:46:09;;;;;;;;;18.75;17.50;;;;;;;;5054736;28;45282;-79
2022/03/22 11:48:37;;;;;;;;;20.75;20.00;;;;;;;;5050197;28;45550;-78
2022/03/22 11:51:03;;;;;;;;;16.25;16.25;;;;;;;;5046802;28;46223;-77
2022/03/22 11:53:29;;;;;;;;;23.00;23.00;;;;;;;;5052306;28;45462;-78
2022/03/22 11:55:57;;;;;;;;;13.50;13.50;;;;;;;;5053043;28;45281;-78
2022/03/22 11:58:26;;;;;;;;;18.25;17.75;;;;;;;;5051810;28;45264;-78
2022/03/22 12:00:56;;;;;;;;;15.00;13.50;;;;;;;;5054761;28;45283;-76
2022/03/22 12:03:28;;;;;;;;;19.25;16.00;;;;;;;;5055765;28;45389;-76
2022/03/22 12:05:53;;;;;;;;;19.00;19.00;;;;;;;;5055390;28;45560;-78
2022/03/22 12:08:19;;;;;;;;;16.25;15.25;;;;;;;;5056040;28;45601;-78
2022/03/22 12:10:51;;;;;;;;;18.50;17.50;;;;;;;;5054852;28;46361;-78
2022/03/22 12:13:16;;;;;;;;;21.50;16.75;;;;;;;;5053488;28;45429;-78
2022/03/22 12:15:41;;;;;;;;;28.25;26.00;;;;;;;;5055085;28;45616;-78
2022/03/22 12:18:08;;;;;;;;;18.25;17.50;;;;;;;;5055815;28;45371;-78
2022/03/22 12:20:33;;;;;;;;;17.75;17.25;;;;;;;;5057301;28;46659;-78
2022/03/22 12:22:59;;;;;;;;;16.25;15.75;;;;;;;;5036874;28;45786;-79
2022/03/22 12:25:26;;;;;;;;;17.00;17.00;;;;;;;;5055028;28;45305;-79
2022/03/22 12:27:57;;;;;;;;;17.25;14.75;;;;;;;;5056012;28;45581;-78
2022/03/22 12:30:24;;;;;;;;;18.50;17.50;;;;;;;;5055862;28;45518;-78
2022/03/22 12:32:50;;;;;;;;;21.00;18.00;;;;;;;;5057552;28;45306;-77
2022/03/22 12:35:15;;;;;;;;;11.25;10.00;;;;;;;;5056103;28;47743;-78
2022/03/22 12:37:41;;;;;;;;;20.50;19.25;;;;;;;;5055606;28;45433;-78
2022/03/22 12:40:06;;;;;;;;;20.75;19.50;;;;;;;;5056276;28;46233;-80
2022/03/22 12:42:32;;;;;;;;;19.75;19.75;;;;;;;;5056753;28;45412;-78
2022/03/22 12:44:57;;;;;;;;;18.50;18.50;;;;;;;;5057211;28;45412;-81
2022/03/22 12:47:23;;;;;;;;;18.00;18.00;;;;;;;;5060377;28;45198;-79
2022/03/22 12:49:48;;;;;;;;;20.50;17.00;;;;;;;;5056698;28;46397;-78
2022/03/22 12:52:13;;;;;;;;;19.00;17.75;;;;;;;;5056981;28;45475;-80
2022/03/22 12:54:42;;;;;;;;;15.50;13.75;;;;;;;;5055787;28;45605;-78
2022/03/22 12:57:13;;;;;;;;;17.25;17.25;;;;;;;;5055850;28;45514;-79
2022/03/22 12:59:39;;;;;;;;;22.25;19.75;;;;;;;;5055141;28;47419;-79
2022/03/22 13:02:08;;;;;;;;;23.00;21.75;;;;;;;;5054779;28;45388;-78
2022/03/22 13:04:46;;;;;;;;;19.50;17.75;;;;;;;;5050892;28;45418;-78
2022/03/22 13:07:12;;;;;;;;;17.75;17.75;;;;;;;;5056845;28;45324;-78
2022/03/22 13:12:20;;;;;;;;;16.75;16.75;;;;;;;;5054892;28;45355;-78
2022/03/22 13:15:01;;;;;;;;;20.75;20.75;;;;;;;;5057723;28;45308;-80
2022/03/22 13:17:42;;;;;;;;;18.00;18.00;;;;;;;;5055601;28;45250;-78
2022/03/22 13:20:27;;;;;;;;;18.75;17.00;;;;;;;;5041333;28;46446;-78
2022/03/22 13:22:59;;;;;;;;;19.50;16.75;;;;;;;;5055161;28;45380;-78
2022/03/22 13:25:27;;;;;;;;;18.50;16.75;;;;;;;;5054452;28;45316;-78
2022/03/22 13:27:57;;;;;;;;;18.75;15.50;;;;;;;;5054826;28;45441;-78
2022/03/22 13:30:22;;;;;;;;;20.50;17.75;;;;;;;;5055360;28;46918;-78
2022/03/22 13:32:47;;;;;;;;;19.75;19.25;;;;;;;;5056441;28;45553;-77
2022/03/22 13:35:13;;;;;;;;;15.50;14.00;;;;;;;;5056296;28;45521;-78
2022/03/22 13:37:44;;;;;;;;;13.75;13.75;;;;;;;;5055709;28;45494;-78
2022/03/22 13:40:10;;;;;;;;;17.00;15.50;;;;;;;;5060952;28;45957;-82
2022/03/22 13:42:36;;;;;;;;;19.75;18.00;;;;;;;;5055949;28;45446;-78
2022/03/22 13:45:03;;;;;;;;;20.00;18.25;;;;;;;;5055939;28;45375;-78
2022/03/22 13:47:32;;;;;;;;;19.25;17.25;;;;;;;;5056602;28;45325;-78
2022/03/22 13:49:59;;;;;;;;;19.00;18.75;;;;;;;;5056296;28;45482;-79
2022/03/22 13:52:25;;;;;;;;;22.00;19.50;;;;;;;;5055572;28;45462;-79
2022/03/22 13:54:53;;;;;;;;;21.75;19.00;;;;;;;;5055945;28;45597;-78
2022/03/22 13:57:18;;;;;;;;;19.00;19.00;;;;;;;;5055792;28;45448;-78
2022/03/22 13:59:44;;;;;;;;;16.75;16.75;;;;;;;;5055425;28;45582;-78
2022/03/22 14:02:10;;;;;;;;;21.00;18.50;;;;;;;;5058568;28;45431;-78
2022/03/22 14:04:35;;;;;;;;;17.50;15.50;;;;;;;;5075305;28;45521;-78
2022/03/22 14:07:05;;;;;;;;;19.25;19.00;;;;;;;;5074124;28;45502;-78
2022/03/22 14:09:32;;;;;;;;;22.25;19.75;;;;;;;;5073161;27;46343;-78
2022/03/22 14:11:58;;;;;;;;;18.00;14.50;;;;;;;;5072977;28;45544;-79
2022/03/22 14:14:23;;;;;;;;;19.00;18.00;;;;;;;;5073430;28;45388;-78
2022/03/22 14:16:48;;;;;;;;;20.75;19.50;;;;;;;;5074047;28;45560;-78
2022/03/22 14:19:15;;;;;;;;;15.50;13.75;;;;;;;;5074256;27;46723;-78
2022/03/22 14:21:40;;;;;;;;;21.25;19.50;;;;;;;;5073371;27;45338;-79
2022/03/22 14:24:05;;;;;;;;;15.25;14.00;;;;;;;;5072857;27;45494;-78
2022/03/22 14:26:31;;;;;;;;;16.75;16.50;;;;;;;;5073288;28;45425;-80
2022/03/22 14:28:56;;;;;;;;;19.50;16.00;;;;;;;;5073401;28;45287;-78
2022/03/22 14:31:21;;;;;;;;;18.25;16.00;;;;;;;;5074520;27;45343;-78
2022/03/22 14:33:46;;;;;;;;;16.00;15.25;;;;;;;;5073020;28;45487;-79
2022/03/22 14:36:12;;;;;;;;;18.75;17.75;;;;;;;;5073080;27;45231;-78
2022/03/22 14:38:37;;;;;;;;;17.50;15.00;;;;;;;;5073224;28;45572;-78
2022/03/22 14:41:22;;;;;;;;;19.75;18.00;;;;;;;;5073247;28;45335;-77
2022/03/22 14:43:48;;;;;;;;;21.50;19.00;;;;;;;;5070859;28;45287;-78
2022/03/22 14:46:14;;;;;;;;;19.50;19.50;;;;;;;;5073288;28;45237;-78